Time;durP1;ratioP1;P1;durP2;ratioP2;P2;SDS_P1;SDS_P2;PMS_P1;PMS_P2;Temp;Humidity;BMP_temperature;BMP_pressure;BME280_temperature;BME280_humidity;BME280_pressure;Samples;Min_cycle;Max_cycle;Signal;HPM_P1;HPM_P2
2023/02/14 00:01:31;;;;;;;11.02;7.82;;;10.10;86.00;;;;;;6219591;23;20004;-81
2023/02/14 00:03:59;;;;;;;10.13;7.75;;;10.10;86.00;;;;;;6219886;23;20000;-81
2023/02/14 00:06:25;;;;;;;9.38;7.57;;;10.10;86.00;;;;;;6246983;23;19996;-81
2023/02/14 00:08:52;;;;;;;9.82;7.57;;;10.10;86.00;;;;;;6246680;23;20011;-81
2023/02/14 00:11:18;;;;;;;9.55;7.60;;;10.10;86.00;;;;;;6219105;23;20004;-81
2023/02/14 00:15:20;;;;;;;9.88;7.38;;;10.10;86.00;;;;;;6245299;23;20389;-81
2023/02/14 00:16:30;;;;;;;10.23;7.72;;;10.10;86.00;;;;;;6244928;23;20000;-81
2023/02/14 00:19:02;;;;;;;10.88;8.15;;;10.10;86.00;;;;;;6245301;23;20427;-81
2023/02/14 00:21:28;;;;;;;10.02;7.88;;;10.00;86.00;;;;;;6218518;23;20079;-81
2023/02/14 00:23:53;;;;;;;10.25;8.00;;;10.10;86.30;;;;;;6218943;23;20024;-82
2023/02/14 00:26:19;;;;;;;10.07;7.53;;;10.10;86.00;;;;;;6245681;23;20740;-81
2023/02/14 00:28:45;;;;;;;9.95;7.55;;;10.10;85.90;;;;;;6246281;23;20000;-81
2023/02/14 00:31:10;;;;;;;9.40;7.22;;;10.10;86.00;;;;;;6218936;23;20347;-81
2023/02/14 00:33:36;;;;;;;9.60;7.50;;;10.10;85.90;;;;;;6219105;23;20401;-81
2023/02/14 00:36:05;;;;;;;10.27;7.90;;;10.10;86.00;;;;;;6218697;23;20443;-81
2023/02/14 00:38:32;;;;;;;9.65;7.53;;;10.10;86.00;;;;;;6218430;23;20000;-81
2023/02/14 00:40:58;;;;;;;9.23;7.30;;;10.10;85.90;;;;;;6212710;23;20036;-81
2023/02/14 00:43:24;;;;;;;9.80;7.68;;;10.10;86.00;;;;;;6213216;23;20339;-81
2023/02/14 00:45:49;;;;;;;9.52;7.43;;;10.10;86.00;;;;;;6213280;23;20451;-81
2023/02/14 00:48:15;;;;;;;9.55;7.57;;;10.10;86.00;;;;;;6214864;23;20003;-81
2023/02/14 00:50:41;;;;;;;9.75;7.28;;;10.10;85.90;;;;;;6215087;23;20008;-81
2023/02/14 00:53:06;;;;;;;9.52;7.20;;;10.10;85.90;;;;;;6213362;23;19996;-81
2023/02/14 00:55:31;;;;;;;9.32;6.82;;;10.10;86.00;;;;;;6213074;23;20012;-81
2023/02/14 00:57:57;;;;;;;9.32;7.00;;;10.10;86.00;;;;;;6215159;23;20451;-81
2023/02/14 01:00:23;;;;;;;9.82;7.55;;;10.10;85.90;;;;;;6213027;23;20009;-81
2023/02/14 01:02:48;;;;;;;9.32;7.38;;;10.10;85.90;;;;;;6213119;23;20462;-80
2023/02/14 01:05:14;;;;;;;9.35;6.75;;;10.00;85.90;;;;;;6213356;23;20035;-81
2023/02/14 01:07:39;;;;;;;9.70;7.30;;;10.10;85.90;;;;;;6213173;23;20055;-77
2023/02/14 01:10:05;;;;;;;8.85;6.78;;;10.00;85.80;;;;;;6214163;23;20054;-77
2023/02/14 01:12:31;;;;;;;9.93;7.47;;;10.10;85.90;;;;;;6216279;23;20040;-82
2023/02/14 01:14:56;;;;;;;9.20;7.22;;;10.10;85.80;;;;;;6222172;23;20001;-82
2023/02/14 01:17:22;;;;;;;9.63;7.22;;;10.10;85.80;;;;;;6220585;23;20039;-82
2023/02/14 01:19:51;;;;;;;9.80;7.50;;;10.10;85.90;;;;;;6220982;23;20436;-82
2023/02/14 01:22:16;;;;;;;9.23;7.10;;;10.00;85.80;;;;;;6219671;23;20477;-81
2023/02/14 01:24:42;;;;;;;9.20;7.15;;;10.00;85.80;;;;;;6219723;23;20027;-81
2023/02/14 01:27:07;;;;;;;9.30;7.20;;;10.00;85.80;;;;;;6221620;23;19997;-81
2023/02/14 01:29:33;;;;;;;8.73;6.95;;;10.10;85.90;;;;;;6219246;23;20063;-81
2023/02/14 01:31:58;;;;;;;9.68;6.97;;;10.10;85.90;;;;;;6219927;23;19996;-81
2023/02/14 01:34:24;;;;;;;9.55;7.18;;;10.00;85.80;;;;;;6218921;23;20435;-81
2023/02/14 01:36:49;;;;;;;8.77;6.70;;;10.10;85.90;;;;;;6217570;23;20012;-81
2023/02/14 01:39:16;;;;;;;8.57;6.55;;;10.10;85.80;;;;;;6218865;23;20004;-81
2023/02/14 01:41:43;;;;;;;9.13;7.00;;;10.00;85.80;;;;;;6217782;23;20015;-82
2023/02/14 01:44:13;;;;;;;8.93;6.90;;;10.00;85.70;;;;;;6219095;23;20016;-81
2023/02/14 01:46:39;;;;;;;9.02;6.90;;;10.00;85.80;;;;;;6219964;23;19996;-81
2023/02/14 01:49:14;;;;;;;8.60;6.30;;;10.10;85.80;;;;;;6218293;23;20005;-80
2023/02/14 01:51:49;;;;;;;9.10;6.80;;;10.00;85.70;;;;;;6218111;23;20009;-81
2023/02/14 01:54:18;;;;;;;8.65;6.75;;;10.10;85.80;;;;;;6217920;23;20005;-77
2023/02/14 01:56:48;;;;;;;9.57;7.10;;;10.10;85.80;;;;;;6219473;23;20012;-80
2023/02/14 01:59:18;;;;;;;8.93;6.75;;;10.10;85.80;;;;;;6217419;23;20008;-81
2023/02/14 02:01:47;;;;;;;8.77;6.65;;;10.00;85.70;;;;;;6217471;23;20393;-81
2023/02/14 02:04:17;;;;;;;8.77;6.68;;;10.10;85.80;;;;;;6222969;23;19996;-81
2023/02/14 02:10:06;;;;;;;8.60;6.40;;;10.00;85.70;;;;;;6219440;23;20070;-81
2023/02/14 02:12:34;;;;;;;9.13;7.00;;;10.10;85.80;;;;;;6217153;23;20003;-81
2023/02/14 02:15:02;;;;;;;9.43;7.28;;;10.00;85.70;;;;;;6216355;23;20054;-79
2023/02/14 02:18:07;;;;;;;8.75;6.68;;;10.00;85.70;;;;;;6221140;23;20032;-81
2023/02/14 02:20:48;;;;;;;9.07;6.95;;;10.10;85.70;;;;;;6219572;23;20015;-81
2023/02/14 02:23:25;;;;;;;8.80;6.60;;;10.00;85.70;;;;;;6220993;23;20000;-81
2023/02/14 02:26:28;;;;;;;9.18;7.00;;;10.00;86.20;;;;;;6220060;23;20007;-81
2023/02/14 02:29:12;;;;;;;8.98;6.50;;;10.00;85.70;;;;;;6217139;23;20000;-81
2023/02/14 02:31:55;;;;;;;9.40;6.90;;;10.00;85.70;;;;;;6218527;23;20004;-81
2023/02/14 02:34:53;;;;;;;7.97;6.00;;;10.00;85.70;;;;;;6216155;23;20040;-81
2023/02/14 02:38:04;;;;;;;8.95;6.72;;;10.00;85.70;;;;;;6217845;23;20009;-81
2023/02/14 02:40:45;;;;;;;9.10;6.85;;;10.00;85.70;;;;;;6206804;23;20015;-81
2023/02/14 02:43:33;;;;;;;8.55;6.57;;;10.00;85.70;;;;;;6218529;23;20005;-81
2023/02/14 02:53:01;;;;;;;8.82;6.57;;;10.00;85.70;;;;;;6219028;23;20015;-81
2023/02/14 02:55:02;;;;;;;9.15;6.78;;;10.00;85.60;;;;;;6218686;23;20131;-81
2023/02/14 02:57:34;;;;;;;8.48;6.22;;;10.00;85.60;;;;;;6218316;23;20424;-81
2023/02/14 03:00:03;;;;;;;8.82;6.82;;;10.10;85.70;;;;;;6217740;23;20055;-81
2023/02/14 03:04:46;;;;;;;7.78;5.85;;;10.00;85.60;;;;;;6215418;23;20005;-81
2023/02/14 03:05:18;;;;;;;8.75;6.47;;;10.00;85.60;;;;;;6215395;23;20051;-80
2023/02/14 03:07:47;;;;;;;8.77;6.28;;;10.00;85.70;;;;;;6218409;23;20000;-80
2023/02/14 03:10:20;;;;;;;7.40;5.75;;;10.00;85.70;;;;;;6215818;23;20015;-80
2023/02/14 03:13:08;;;;;;;8.30;6.18;;;10.00;85.60;;;;;;6214485;23;20005;-81
2023/02/14 03:15:50;;;;;;;8.45;6.20;;;10.00;85.70;;;;;;6213855;23;20016;-81
2023/02/14 03:18:45;;;;;;;8.48;6.20;;;10.10;85.70;;;;;;6214203;23;20099;-81
2023/02/14 03:21:23;;;;;;;7.95;5.97;;;10.00;85.60;;;;;;6216815;23;20040;-81
2023/02/14 03:24:10;;;;;;;8.25;6.07;;;10.00;85.60;;;;;;6215664;23;20340;-81
2023/02/14 03:26:48;;;;;;;8.88;6.15;;;10.00;85.60;;;;;;6217656;23;20001;-81
2023/02/14 03:29:30;;;;;;;8.18;6.38;;;10.00;85.60;;;;;;6217422;23;20032;-81
2023/02/14 03:32:10;;;;;;;8.27;6.35;;;10.00;86.20;;;;;;6214923;23;20016;-81
2023/02/14 03:34:41;;;;;;;8.20;6.00;;;10.00;85.60;;;;;;6215280;23;20343;-81
2023/02/14 03:37:14;;;;;;;8.00;5.85;;;10.10;85.70;;;;;;6216329;23;20008;-80
2023/02/14 03:39:58;;;;;;;7.93;5.97;;;10.00;85.60;;;;;;6214471;23;20035;-80
2023/02/14 03:42:29;;;;;;;8.18;6.00;;;10.00;85.60;;;;;;6214244;23;20009;-79
2023/02/14 03:44:57;;;;;;;12.20;6.03;;;10.00;85.60;;;;;;6215321;23;20055;-80
2023/02/14 03:47:26;;;;;;;7.80;5.97;;;10.00;85.60;;;;;;6216084;23;20302;-80
2023/02/14 03:50:03;;;;;;;7.90;5.88;;;10.00;85.60;;;;;;6216872;23;20031;-80
2023/02/14 03:52:30;;;;;;;8.45;6.20;;;10.00;85.60;;;;;;6212893;23;20317;-80
2023/02/14 03:54:58;;;;;;;8.10;5.70;;;10.00;85.60;;;;;;6213908;23;20009;-80
2023/02/14 03:58:04;;;;;;;8.20;6.00;;;10.00;85.60;;;;;;6215265;23;20008;-81
2023/02/14 04:00:35;;;;;;;7.97;5.95;;;10.00;85.60;;;;;;6202800;23;20012;-81
2023/02/14 04:03:05;;;;;;;7.03;5.40;;;10.00;85.50;;;;;;6215629;23;20004;-80
2023/02/14 04:05:31;;;;;;;8.10;5.80;;;9.90;85.50;;;;;;6214882;23;20027;-81
2023/02/14 04:07:58;;;;;;;7.85;5.60;;;10.00;85.60;;;;;;6213506;23;20036;-80
2023/02/14 04:10:24;;;;;;;8.02;6.13;;;10.00;85.60;;;;;;6212687;23;20166;-81
2023/02/14 04:12:50;;;;;;;7.97;5.82;;;10.00;85.60;;;;;;6213293;23;20192;-80
2023/02/14 04:15:16;;;;;;;7.55;5.18;;;10.00;85.60;;;;;;6213365;23;20085;-80
2023/02/14 04:20:27;;;;;;;7.75;5.55;;;10.00;85.50;;;;;;6215532;23;20416;-81
2023/02/14 04:22:53;;;;;;;7.45;5.55;;;10.00;85.60;;;;;;6214206;23;20011;-78
2023/02/14 04:25:20;;;;;;;8.00;5.75;;;10.00;85.50;;;;;;6212022;23;20001;-80
2023/02/14 04:27:46;;;;;;;7.30;5.50;;;10.00;85.60;;;;;;6211654;23;20005;-78
2023/02/14 04:30:12;;;;;;;7.82;5.50;;;10.00;85.60;;;;;;6212670;23;20035;-81
2023/02/14 04:32:38;;;;;;;7.50;5.68;;;10.00;85.50;;;;;;6211220;23;20005;-80
2023/02/14 04:35:04;;;;;;;7.78;5.78;;;10.00;85.60;;;;;;6209201;23;20348;-81
2023/02/14 04:37:30;;;;;;;6.85;5.05;;;10.00;85.50;;;;;;6211443;23;20004;-80
2023/02/14 04:39:55;;;;;;;8.07;6.00;;;9.90;85.50;;;;;;6220958;23;20073;-81
2023/02/14 04:42:21;;;;;;;8.10;5.95;;;10.00;85.50;;;;;;6213754;23;20004;-81
2023/02/14 04:44:47;;;;;;;7.18;5.28;;;10.00;85.60;;;;;;6211630;23;20344;-79
2023/02/14 04:47:12;;;;;;;7.63;5.65;;;10.00;85.50;;;;;;6207924;23;19997;-79
2023/02/14 04:49:37;;;;;;;7.50;5.60;;;10.00;85.50;;;;;;6209792;23;20107;-79
2023/02/14 04:52:04;;;;;;;7.25;5.35;;;10.00;85.50;;;;;;6211726;23;20013;-79
2023/02/14 04:54:29;;;;;;;7.47;5.57;;;10.00;85.50;;;;;;6212082;23;20005;-80
2023/02/14 04:56:55;;;;;;;7.03;5.07;;;10.00;85.50;;;;;;6216266;23;20779;-79
2023/02/14 04:59:21;;;;;;;7.78;6.05;;;10.00;85.50;;;;;;6213365;23;20028;-80
2023/02/14 05:01:47;;;;;;;7.15;5.35;;;10.00;85.30;;;;;;6214252;23;20402;-81
2023/02/14 05:04:13;;;;;;;7.35;5.57;;;10.00;85.20;;;;;;6217030;23;20001;-80
2023/02/14 05:06:38;;;;;;;6.70;4.97;;;10.00;85.10;;;;;;6215843;23;20063;-79
2023/02/14 05:09:04;;;;;;;7.80;5.63;;;10.00;85.00;;;;;;6213818;23;20001;-77
2023/02/14 05:11:30;;;;;;;7.10;5.38;;;10.00;85.00;;;;;;6215776;23;20009;-83
2023/02/14 05:13:55;;;;;;;7.68;5.70;;;10.00;85.10;;;;;;6214005;23;20343;-79
2023/02/14 05:16:21;;;;;;;9.65;6.15;;;10.30;85.20;;;;;;6211084;23;20005;-77
2023/02/14 05:18:47;;;;;;;7.40;5.20;;;10.00;85.20;;;;;;6209940;23;20008;-77
2023/02/14 05:21:13;;;;;;;8.32;5.78;;;10.00;85.20;;;;;;6210451;23;20050;-76
2023/02/14 05:23:38;;;;;;;7.53;5.38;;;10.00;85.20;;;;;;6210661;23;20007;-77
2023/02/14 05:26:04;;;;;;;7.18;5.10;;;10.00;85.20;;;;;;6209622;23;20071;-76
2023/02/14 05:28:29;;;;;;;6.85;4.97;;;10.00;85.20;;;;;;6209582;23;20001;-77
2023/02/14 05:30:56;;;;;;;7.95;5.35;;;10.00;85.20;;;;;;6208203;23;20009;-77
2023/02/14 05:33:22;;;;;;;7.60;5.30;;;10.00;85.20;;;;;;6206500;23;20008;-76
2023/02/14 05:35:47;;;;;;;7.88;5.53;;;10.00;85.10;;;;;;6206528;23;20011;-77
2023/02/14 05:38:13;;;;;;;7.88;5.22;;;10.00;85.10;;;;;;6207798;23;20017;-77
2023/02/14 05:40:39;;;;;;;8.32;5.28;;;10.00;85.10;;;;;;6207131;23;20044;-77
2023/02/14 05:43:05;;;;;;;7.65;5.10;;;9.90;85.10;;;;;;6208805;23;20001;-76
2023/02/14 05:45:30;;;;;;;8.27;5.50;;;10.00;85.20;;;;;;6208213;23;20004;-76
2023/02/14 05:47:56;;;;;;;7.97;5.68;;;10.00;85.20;;;;;;6206274;23;20032;-77
2023/02/14 05:50:21;;;;;;;7.30;5.35;;;10.00;85.20;;;;;;6207160;23;20095;-77
2023/02/14 05:52:47;;;;;;;7.68;5.45;;;10.00;85.20;;;;;;6207893;23;20423;-77
2023/02/14 05:55:12;;;;;;;6.88;5.22;;;10.00;85.20;;;;;;6208390;23;20143;-77
2023/02/14 05:57:38;;;;;;;7.65;5.60;;;10.00;85.20;;;;;;6208568;23;20348;-78
2023/02/14 06:00:05;;;;;;;6.85;4.82;;;10.00;85.20;;;;;;6210066;23;20431;-78
2023/02/14 06:02:31;;;;;;;7.53;5.40;;;10.00;85.20;;;;;;6209213;23;20455;-78
2023/02/14 06:04:57;;;;;;;7.18;4.95;;;10.00;85.20;;;;;;6209229;23;20091;-77
2023/02/14 06:07:22;;;;;;;7.57;5.50;;;10.00;85.20;;;;;;6210736;23;20004;-79
2023/02/14 06:09:48;;;;;;;7.65;5.38;;;10.00;85.20;;;;;;6212799;23;20427;-77
2023/02/14 06:12:13;;;;;;;7.80;5.30;;;10.00;85.20;;;;;;6211422;23;20018;-78
2023/02/14 06:14:41;;;;;;;7.50;5.38;;;10.00;85.20;;;;;;6210041;23;20011;-78
2023/02/14 06:17:07;;;;;;;7.97;5.55;;;10.00;85.00;;;;;;6211659;23;20000;-78
2023/02/14 06:19:33;;;;;;;8.45;5.57;;;10.00;84.80;;;;;;6213063;23;20008;-78
2023/02/14 06:21:58;;;;;;;6.78;5.00;;;10.00;84.70;;;;;;6209900;23;20032;-81
2023/02/14 06:24:24;;;;;;;7.40;5.30;;;10.00;84.70;;;;;;6212179;23;20009;-79
2023/02/14 06:26:49;;;;;;;8.73;5.82;;;9.90;84.70;;;;;;6212823;23;20005;-79
2023/02/14 06:29:16;;;;;;;7.65;5.53;;;10.00;84.90;;;;;;6211212;23;20331;-79
2023/02/14 06:31:41;;;;;;;7.95;5.68;;;10.00;84.90;;;;;;6211214;23;20012;-79
2023/02/14 06:34:07;;;;;;;7.22;5.32;;;9.90;84.90;;;;;;6213989;23;20023;-82
2023/02/14 06:36:33;;;;;;;7.57;5.72;;;10.00;84.90;;;;;;6216571;23;20001;-79
2023/02/14 06:38:58;;;;;;;7.78;5.63;;;10.00;85.00;;;;;;6217487;23;20039;-75
2023/02/14 06:41:24;;;;;;;7.45;5.40;;;9.90;85.00;;;;;;6230212;23;20008;-74
2023/02/14 06:43:49;;;;;;;7.18;5.70;;;10.00;85.00;;;;;;6244432;23;20439;-79
2023/02/14 06:46:16;;;;;;;8.43;5.72;;;10.00;85.00;;;;;;6243119;23;20058;-78
2023/02/14 06:48:42;;;;;;;7.43;5.30;;;9.90;84.90;;;;;;6244318;23;20003;-78
2023/02/14 06:51:08;;;;;;;7.20;5.55;;;10.00;84.90;;;;;;6216324;23;20095;-79
2023/02/14 06:53:33;;;;;;;7.97;5.60;;;10.00;84.80;;;;;;6244365;23;20019;-78
2023/02/14 06:55:59;;;;;;;8.23;5.57;;;10.00;84.80;;;;;;6243713;23;20015;-78
2023/02/14 06:58:24;;;;;;;7.13;5.22;;;9.90;84.80;;;;;;6244137;23;20004;-78
2023/02/14 07:00:50;;;;;;;7.68;5.47;;;10.00;84.80;;;;;;6217830;23;20000;-78
2023/02/14 07:03:15;;;;;;;7.63;5.63;;;10.00;84.80;;;;;;6245638;23;20011;-77
2023/02/14 07:05:43;;;;;;;6.75;5.10;;;10.00;84.80;;;;;;6218180;23;20027;-78
2023/02/14 07:08:09;;;;;;;7.80;5.50;;;9.90;84.60;;;;;;6218063;23;20004;-77
2023/02/14 07:10:34;;;;;;;7.18;5.18;;;10.00;84.60;;;;;;6217779;23;20039;-78
2023/02/14 07:13:00;;;;;;;7.30;5.40;;;10.00;84.50;;;;;;6217534;23;20457;-79
2023/02/14 07:15:26;;;;;;;7.00;5.30;;;10.10;84.50;;;;;;6217707;23;20008;-79
2023/02/14 07:17:51;;;;;;;7.13;5.30;;;10.10;84.40;;;;;;6244003;23;20023;-78
2023/02/14 07:20:17;;;;;;;7.10;5.18;;;10.10;84.40;;;;;;6244658;23;20012;-78
2023/02/14 07:22:43;;;;;;;7.38;5.38;;;10.10;84.30;;;;;;6244899;23;20004;-78
2023/02/14 07:25:10;;;;;;;6.90;5.07;;;10.20;84.20;;;;;;6244594;23;19996;-75
2023/02/14 07:27:36;;;;;;;8.07;5.28;;;10.20;84.20;;;;;;6217545;23;20000;-78
2023/02/14 07:30:03;;;;;;;8.07;5.45;;;10.20;84.10;;;;;;6217465;23;20035;-78
2023/02/14 07:32:28;;;;;;;7.65;5.28;;;10.30;84.10;;;;;;6217324;23;20446;-78
2023/02/14 07:34:54;;;;;;;7.45;5.20;;;10.30;83.90;;;;;;6217911;23;20035;-78
2023/02/14 07:37:19;;;;;;;8.55;5.00;;;10.30;83.80;;;;;;6244250;23;20079;-78
2023/02/14 07:39:45;;;;;;;7.95;5.10;;;10.30;83.70;;;;;;6245867;23;20000;-79
2023/02/14 07:42:11;;;;;;;7.55;5.40;;;10.40;83.60;;;;;;6218552;23;20016;-78
2023/02/14 07:44:37;;;;;;;6.47;4.82;;;10.40;83.40;;;;;;6217778;23;20027;-79
2023/02/14 07:47:04;;;;;;;7.05;5.53;;;10.50;83.20;;;;;;6245105;23;20000;-79
2023/02/14 07:49:29;;;;;;;6.55;4.75;;;10.50;83.10;;;;;;6245635;23;20082;-78
2023/02/14 07:51:55;;;;;;;6.80;4.95;;;10.60;83.00;;;;;;6217448;23;20047;-78
2023/02/14 07:54:20;;;;;;;7.25;5.13;;;10.60;82.80;;;;;;6218627;23;20000;-79
2023/02/14 07:56:46;;;;;;;6.97;4.70;;;10.60;82.70;;;;;;6219635;23;20004;-78
2023/02/14 07:59:11;;;;;;;6.68;4.70;;;10.70;82.60;;;;;;6219585;23;20439;-79
2023/02/14 08:01:37;;;;;;;6.78;4.85;;;10.70;82.50;;;;;;6221541;23;20054;-79
2023/02/14 08:04:02;;;;;;;6.70;4.70;;;10.70;82.40;;;;;;6221632;23;20000;-78
2023/02/14 08:06:28;;;;;;;9.30;4.90;;;10.80;82.30;;;;;;6248034;23;20370;-79
2023/02/14 08:08:53;;;;;;;7.05;5.22;;;10.80;82.30;;;;;;6247504;23;20072;-79
2023/02/14 08:14:03;;;;;;;6.78;4.82;;;10.90;82.00;;;;;;6248567;23;20271;-79
2023/02/14 08:16:32;;;;;;;6.93;5.20;;;10.90;81.90;;;;;;6252678;23;20003;-79
2023/02/14 08:18:58;;;;;;;6.72;5.10;;;10.90;81.70;;;;;;6221354;23;20015;-79
2023/02/14 08:21:23;;;;;;;6.90;4.65;;;11.00;81.70;;;;;;6220039;23;20008;-78
2023/02/14 08:23:49;;;;;;;7.05;4.75;;;11.00;81.50;;;;;;6220222;23;19996;-79
2023/02/14 08:26:16;;;;;;;6.88;4.75;;;11.00;81.40;;;;;;6219567;23;20004;-78
2023/02/14 08:28:41;;;;;;;6.70;4.90;;;11.00;81.40;;;;;;6247062;23;20020;-78
2023/02/14 08:31:07;;;;;;;7.30;4.70;;;11.10;81.20;;;;;;6246806;23;20008;-78
2023/02/14 08:40:36;;;;;;;6.55;4.60;;;11.20;81.00;;;;;;6245721;23;20038;-78
2023/02/14 08:43:03;;;;;;;6.63;4.72;;;11.20;80.80;;;;;;6217727;23;20008;-78
2023/02/14 08:45:28;;;;;;;6.88;4.80;;;11.30;80.80;;;;;;6218381;23;20004;-79
2023/02/14 08:47:58;;;;;;;7.97;5.05;;;11.30;80.80;;;;;;6218941;23;20014;-79
2023/02/14 08:50:24;;;;;;;6.28;4.50;;;11.30;80.80;;;;;;6248084;23;20402;-79
2023/02/14 08:52:49;;;;;;;6.25;4.50;;;11.40;80.80;;;;;;6248683;23;20050;-79
2023/02/14 08:55:15;;;;;;;6.03;4.20;;;11.40;80.80;;;;;;6221082;23;20008;-79
2023/02/14 08:57:40;;;;;;;6.45;4.40;;;11.40;80.80;;;;;;6220963;23;20054;-79
2023/02/14 09:00:07;;;;;;;5.88;4.45;;;11.40;80.70;;;;;;6220338;23;20047;-79
2023/02/14 09:02:33;;;;;;;6.45;4.75;;;11.40;80.60;;;;;;6247942;23;20006;-78
2023/02/14 09:04:59;;;;;;;6.82;4.80;;;11.50;80.40;;;;;;6220443;23;20024;-78
2023/02/14 09:07:25;;;;;;;6.15;4.72;;;11.50;80.20;;;;;;6219857;23;20001;-79
2023/02/14 09:09:50;;;;;;;6.25;4.53;;;11.50;80.30;;;;;;6219728;23;20058;-79
2023/02/14 09:12:16;;;;;;;6.72;4.68;;;11.60;80.30;;;;;;6220220;23;19993;-78
2023/02/14 09:14:43;;;;;;;6.70;4.70;;;11.60;80.00;;;;;;6246862;23;20031;-79
2023/02/14 09:17:10;;;;;;;7.05;4.80;;;11.60;79.90;;;;;;6246624;23;20020;-79
2023/02/14 09:19:36;;;;;;;6.90;4.85;;;11.60;79.90;;;;;;6219799;23;20138;-79
2023/02/14 09:22:02;;;;;;;6.55;4.72;;;11.60;79.70;;;;;;6219165;23;20012;-79
2023/02/14 09:24:29;;;;;;;6.05;4.47;;;11.70;79.90;;;;;;6219461;23;20000;-79
2023/02/14 09:26:56;;;;;;;6.50;4.55;;;11.70;79.60;;;;;;6245160;23;20008;-78
2023/02/14 09:29:25;;;;;;;6.53;4.38;;;11.70;79.90;;;;;;6219190;23;20038;-78
2023/02/14 09:31:53;;;;;;;6.20;4.45;;;11.70;80.20;;;;;;6246246;23;20007;-79
2023/02/14 09:34:18;;;;;;;6.10;4.18;;;11.70;80.10;;;;;;6247928;23;20063;-79
2023/02/14 09:39:28;;;;;;;5.63;4.10;;;11.70;80.10;;;;;;6247401;23;20346;-79
2023/02/14 09:42:16;;;;;;;6.43;4.57;;;11.80;80.20;;;;;;6219808;23;20019;-79
2023/02/14 09:45:05;;;;;;;6.05;4.07;;;11.80;80.20;;;;;;6220720;23;20008;-79
2023/02/14 09:47:50;;;;;;;6.00;4.35;;;11.80;79.90;;;;;;6220374;23;20007;-79
2023/02/14 09:50:22;;;;;;;5.90;4.28;;;11.80;80.10;;;;;;6219497;23;20011;-79
2023/02/14 09:52:51;;;;;;;6.38;4.47;;;11.90;79.90;;;;;;6247451;23;20014;-79
2023/02/14 09:55:17;;;;;;;6.50;4.45;;;11.80;80.40;;;;;;6221858;23;20062;-79
2023/02/14 09:58:03;;;;;;;7.32;5.10;;;11.90;80.30;;;;;;6250976;23;20004;-80
2023/02/14 10:00:41;;;;;;;5.85;4.15;;;11.90;80.10;;;;;;6223883;23;20055;-80
2023/02/14 10:03:16;;;;;;;6.70;4.45;;;11.90;80.10;;;;;;6219922;23;20004;-78
2023/02/14 10:06:11;;;;;;;6.97;4.75;;;11.90;80.30;;;;;;6219924;23;20044;-78
2023/02/14 10:08:47;;;;;;;6.30;4.43;;;12.00;79.70;;;;;;6208406;23;20004;-79
2023/02/14 10:11:19;;;;;;;6.22;4.22;;;12.00;79.70;;;;;;6219329;23;20011;-79
2023/02/14 10:13:56;;;;;;;5.78;4.05;;;12.00;79.60;;;;;;6228066;23;20095;-78
2023/02/14 10:16:31;;;;;;;5.95;4.00;;;12.00;79.50;;;;;;6248598;23;20000;-79
2023/02/14 10:19:14;;;;;;;6.30;4.10;;;12.00;79.80;;;;;;6247022;23;20004;-76
2023/02/14 10:21:43;;;;;;;6.15;4.15;;;12.00;79.50;;;;;;6219494;23;20484;-78
2023/02/14 10:24:33;;;;;;;6.78;4.18;;;12.10;79.50;;;;;;6246114;23;20082;-78
2023/02/14 10:27:30;;;;;;;5.88;4.20;;;12.10;79.90;;;;;;6218221;23;20004;-78
2023/02/14 10:29:56;;;;;;;5.60;3.90;;;12.10;79.90;;;;;;6218441;23;20004;-78
2023/02/14 10:32:40;;;;;;;6.78;4.47;;;12.10;79.90;;;;;;6218870;23;20363;-78
2023/02/14 10:35:24;;;;;;;5.88;4.05;;;12.10;79.60;;;;;;6224536;23;20450;-76
2023/02/14 10:38:27;;;;;;;5.88;4.30;;;12.20;79.80;;;;;;6224749;23;20000;-79
2023/02/14 10:41:01;;;;;;;6.35;4.15;;;12.20;80.00;;;;;;6249401;23;20040;-79
2023/02/14 10:43:42;;;;;;;6.05;4.03;;;12.20;80.00;;;;;;6249161;23;20020;-79
2023/02/14 10:46:32;;;;;;;;;;;12.20;79.50;;;;;;6246956;23;20011;-79
2023/02/14 10:49:13;;;;;;;5.68;3.55;;;12.20;79.30;;;;;;6218946;23;19900;-78
2023/02/14 10:51:59;;;;;;;6.18;4.25;;;12.30;79.10;;;;;;6217463;23;20443;-78
2023/02/14 10:54:26;;;;;;;5.70;3.75;;;12.30;79.20;;;;;;6248587;23;20099;-80
2023/02/14 10:57:00;;;;;;;5.93;3.90;;;12.30;78.60;;;;;;6250318;23;20000;-79
2023/02/14 10:59:54;;;;;;;5.80;3.95;;;12.40;78.80;;;;;;6225670;23;20050;-78
2023/02/14 11:02:26;;;;;;;6.50;4.38;;;12.40;78.60;;;;;;6221032;23;20376;-79
2023/02/14 11:04:52;;;;;;;;;;;12.40;78.40;;;;;;6221096;23;19996;-78
2023/02/14 11:07:20;;;;;;;5.88;4.07;;;12.30;79.00;;;;;;6220414;23;19949;-79
2023/02/14 11:09:46;;;;;;;5.93;3.53;;;12.40;78.50;;;;;;6219604;23;20016;-76
2023/02/14 11:12:29;;;;;;;11.10;4.68;;;12.40;78.30;;;;;;6217946;23;20008;-78
2023/02/14 11:15:09;;;;;;;6.30;4.07;;;12.40;78.70;;;;;;6217498;23;20409;-77
2023/02/14 11:17:36;;;;;;;6.20;3.90;;;12.40;78.30;;;;;;6245703;23;20008;-79
2023/02/14 11:20:21;;;;;;;7.00;4.50;;;12.40;78.50;;;;;;6222483;23;20011;-79
2023/02/14 11:22:46;;;;;;;6.10;4.22;;;12.40;78.40;;;;;;6221107;23;20342;-78
2023/02/14 11:25:22;;;;;;;5.35;3.72;;;12.40;78.50;;;;;;6220309;23;20075;-79
2023/02/14 11:28:00;;;;;;;5.78;3.92;;;12.40;78.60;;;;;;6220883;23;20329;-78
2023/02/14 11:30:34;;;;;;;5.70;3.92;;;12.40;78.60;;;;;;6221662;23;20011;-79
2023/02/14 11:33:00;;;;;;;5.97;3.80;;;12.40;78.50;;;;;;6222248;23;20003;-79
2023/02/14 11:35:33;;;;;;;6.15;4.15;;;12.40;78.30;;;;;;6248114;23;20094;-79
2023/02/14 11:38:00;;;;;;;5.85;3.90;;;12.40;78.20;;;;;;6248472;23;19996;-79
2023/02/14 11:40:30;;;;;;;5.63;3.80;;;12.50;78.40;;;;;;6248421;23;20056;-79
2023/02/14 11:43:11;;;;;;;6.07;4.15;;;12.50;78.80;;;;;;6221204;23;20083;-79
2023/02/14 11:45:39;;;;;;;5.47;3.88;;;12.50;78.50;;;;;;6248321;23;20031;-80
2023/02/14 11:48:21;;;;;;;7.40;3.70;;;12.50;78.50;;;;;;6251179;23;20000;-79
2023/02/14 11:51:03;;;;;;;6.25;3.80;;;12.50;78.20;;;;;;6220383;23;20008;-78
2023/02/14 11:53:51;;;;;;;5.80;4.00;;;12.50;78.10;;;;;;6221560;23;20008;-79
2023/02/14 11:56:18;;;;;;;5.78;3.85;;;12.50;78.00;;;;;;6220202;23;20363;-79
2023/02/14 11:58:52;;;;;;;6.18;4.07;;;12.50;78.10;;;;;;6246851;23;20383;-79
2023/02/14 12:01:26;;;;;;;5.95;3.80;;;12.50;78.00;;;;;;6247280;23;20004;-79
2023/02/14 12:03:55;;;;;;;5.88;3.83;;;12.60;78.00;;;;;;6219838;23;20331;-79
2023/02/14 12:06:27;;;;;;;5.97;3.85;;;12.60;78.10;;;;;;6246403;23;20071;-79
2023/02/14 12:09:21;;;;;;;6.03;4.13;;;12.50;77.90;;;;;;6246688;23;20083;-79
2023/02/14 12:12:01;;;;;;;5.70;3.72;;;12.60;78.10;;;;;;6246329;23;20057;-79
2023/02/14 12:14:32;;;;;;;5.63;3.95;;;12.60;78.00;;;;;;6246743;23;20054;-78
2023/02/14 12:17:24;;;;;;;5.87;3.83;;;12.60;78.10;;;;;;6245971;23;20011;-79
2023/02/14 12:20:15;;;;;;;5.80;3.90;;;12.60;78.00;;;;;;6220879;23;20242;-79
2023/02/14 12:22:48;;;;;;;5.93;3.78;;;12.50;78.10;;;;;;6221684;23;20008;-79
2023/02/14 12:25:26;;;;;;;5.78;3.80;;;12.60;78.50;;;;;;6220579;23;20008;-79
2023/02/14 12:28:00;;;;;;;5.70;3.75;;;12.50;79.50;;;;;;6250612;23;20497;-79
2023/02/14 12:30:30;;;;;;;5.45;3.63;;;12.60;79.50;;;;;;6223912;23;20008;-79
2023/02/14 12:32:56;;;;;;;6.20;3.95;;;12.60;80.10;;;;;;6221188;23;20012;-79
2023/02/14 12:35:33;;;;;;;5.72;3.72;;;12.50;79.70;;;;;;6221243;23;20374;-79
2023/02/14 12:38:04;;;;;;;5.88;3.97;;;12.60;80.20;;;;;;6247677;23;20409;-79
2023/02/14 12:40:48;;;;;;;5.70;3.63;;;12.50;80.10;;;;;;6247444;23;20081;-79
2023/02/14 12:43:17;;;;;;;5.90;3.53;;;12.50;80.10;;;;;;6247737;23;20011;-79
2023/02/14 12:46:04;;;;;;;5.15;3.53;;;12.50;80.00;;;;;;6219688;23;20374;-79
2023/02/14 12:49:02;;;;;;;5.32;3.50;;;12.50;80.20;;;;;;6246700;23;19996;-79
2023/02/14 12:51:46;;;;;;;5.03;3.30;;;12.50;79.40;;;;;;6238251;23;20008;-79
2023/02/14 12:54:21;;;;;;;5.65;3.72;;;12.50;79.70;;;;;;6246647;23;20008;-79
2023/02/14 12:57:08;;;;;;;6.28;3.78;;;12.50;79.40;;;;;;6246076;23;20040;-79
2023/02/14 12:59:52;;;;;;;5.90;3.75;;;12.50;79.40;;;;;;6223251;23;20010;-79
2023/02/14 13:02:47;;;;;;;6.35;4.07;;;12.50;79.10;;;;;;6246920;23;20008;-79
2023/02/14 13:05:23;;;;;;;5.05;3.25;;;12.50;78.90;;;;;;6245909;23;20052;-79
2023/02/14 13:07:59;;;;;;;5.90;3.90;;;12.50;79.00;;;;;;6245955;23;20075;-78
2023/02/14 13:10:43;;;;;;;6.13;3.78;;;12.50;79.00;;;;;;6247923;23;20011;-79
2023/02/14 13:13:37;;;;;;;6.03;3.80;;;12.50;78.80;;;;;;6248215;23;20000;-79
2023/02/14 13:16:29;;;;;;;6.30;3.90;;;12.50;78.80;;;;;;6222436;23;20019;-79
2023/02/14 13:19:10;;;;;;;6.22;3.92;;;12.40;78.90;;;;;;6208823;23;20004;-79
2023/02/14 13:21:37;;;;;;;6.10;3.83;;;12.40;78.90;;;;;;6220152;23;20008;-78
2023/02/14 13:24:24;;;;;;;5.35;3.20;;;12.40;79.00;;;;;;6247684;23;20054;-79
2023/02/14 13:26:57;;;;;;;6.55;3.85;;;12.40;79.10;;;;;;6219612;23;20004;-78
2023/02/14 13:29:27;;;;;;;6.78;4.25;;;12.40;79.10;;;;;;6247297;23;20000;-79
2023/02/14 13:31:57;;;;;;;7.38;3.70;;;12.30;79.20;;;;;;6246991;23;20032;-79
2023/02/14 13:34:37;;;;;;;5.47;3.92;;;12.40;79.30;;;;;;6247144;23;20004;-79